createdAt,value
2022-09-01T00:01:39.818Z,16.80
2022-09-01T00:04:09.940Z,16.60
2022-09-01T00:06:38.541Z,16.60
2022-09-01T00:09:08.016Z,16.60
2022-09-01T00:11:36.054Z,16.20
2022-09-01T00:14:04.559Z,16.30
2022-09-01T00:16:31.205Z,16.30
2022-09-01T00:18:58.004Z,16.20
2022-09-01T00:21:28.634Z,16.20
2022-09-01T00:23:55.376Z,16.30
2022-09-01T00:26:22.232Z,16.30
2022-09-01T00:28:49.651Z,16.40
2022-09-01T00:31:16.953Z,16.20
2022-09-01T00:33:43.757Z,16.10
2022-09-01T00:36:10.697Z,16.10
2022-09-01T00:38:37.385Z,16.00
2022-09-01T00:41:04.433Z,16.00
2022-09-01T00:43:42.162Z,16.00
2022-09-01T00:46:12.969Z,15.80
2022-09-01T00:48:39.781Z,15.80
2022-09-01T00:51:09.439Z,15.90
2022-09-01T00:53:37.919Z,15.80
2022-09-01T00:56:06.719Z,15.80
2022-09-01T00:58:35.966Z,15.80
2022-09-01T01:01:03.439Z,15.70
2022-09-01T01:03:33.953Z,15.80
2022-09-01T01:06:04.996Z,15.80
2022-09-01T01:08:35.044Z,15.70
2022-09-01T01:11:08.486Z,15.80
2022-09-01T01:14:00.837Z,15.60
2022-09-01T01:16:29.571Z,15.60
2022-09-01T01:18:56.296Z,15.50
2022-09-01T01:21:52.507Z,15.50
2022-09-01T01:24:28.082Z,15.50
2022-09-01T01:26:59.666Z,15.60
2022-09-01T01:29:32.232Z,15.50
2022-09-01T01:31:58.970Z,15.50
2022-09-01T01:34:25.681Z,15.50
2022-09-01T01:36:52.953Z,15.50
2022-09-01T01:39:25.281Z,15.40
2022-09-01T01:41:53.450Z,15.30
2022-09-01T01:44:25.158Z,15.10
2022-09-01T01:46:53.346Z,15.20
2022-09-01T01:49:23.418Z,15.20
2022-09-01T01:51:57.985Z,15.10
2022-09-01T01:54:25.858Z,15.20
2022-09-01T01:56:52.542Z,15.20
2022-09-01T01:59:19.605Z,15.20
2022-09-01T02:01:51.417Z,15.20
2022-09-01T02:04:20.606Z,15.00
2022-09-01T02:06:48.349Z,15.10
2022-09-01T02:09:19.018Z,15.10
2022-09-01T02:11:45.742Z,15.00
2022-09-01T02:14:13.662Z,14.90
2022-09-01T02:16:40.731Z,14.90
2022-09-01T02:19:10.558Z,14.80
2022-09-01T02:21:37.204Z,14.80
2022-09-01T02:24:08.326Z,14.70
2022-09-01T02:26:45.813Z,14.70
2022-09-01T02:29:21.939Z,14.70
2022-09-01T02:31:51.985Z,14.70
2022-09-01T02:34:20.757Z,14.70
2022-09-01T02:36:50.129Z,14.70
2022-09-01T02:39:26.462Z,14.80
2022-09-01T02:41:53.847Z,14.70
2022-09-01T02:44:22.877Z,14.60
2022-09-01T02:46:50.585Z,14.60
2022-09-01T02:49:21.487Z,14.60
2022-09-01T02:51:54.087Z,14.60
2022-09-01T02:54:24.146Z,14.50
2022-09-01T02:56:54.537Z,14.40
2022-09-01T02:59:23.486Z,14.40
2022-09-01T03:01:52.303Z,14.30
2022-09-01T03:04:20.538Z,14.40
2022-09-01T03:06:47.227Z,14.40
2022-09-01T03:09:17.244Z,14.30
2022-09-01T03:11:48.196Z,14.40
2022-09-01T03:14:15.754Z,14.30
2022-09-01T03:16:42.754Z,14.20
2022-09-01T03:19:11.106Z,14.30
2022-09-01T03:21:41.154Z,14.30
2022-09-01T03:24:09.868Z,14.30
2022-09-01T03:26:36.957Z,14.30
2022-09-01T03:29:04.250Z,14.20
2022-09-01T03:31:31.965Z,14.20
2022-09-01T03:34:00.572Z,14.20
2022-09-01T03:36:28.573Z,14.20
2022-09-01T03:38:55.873Z,14.20
2022-09-01T03:41:25.868Z,14.20
2022-09-01T03:43:55.055Z,14.30
2022-09-01T03:46:22.295Z,14.10
2022-09-01T03:48:58.609Z,14.00
2022-09-01T03:51:27.087Z,14.00
2022-09-01T03:53:55.034Z,14.00
2022-09-01T03:56:25.517Z,14.10
2022-09-01T03:58:52.676Z,14.00
2022-09-01T04:01:19.910Z,14.00
2022-09-01T04:03:49.108Z,14.00
2022-09-01T04:06:18.549Z,13.90
2022-09-01T04:08:46.257Z,13.90
2022-09-01T04:11:18.505Z,13.90
2022-09-01T04:13:47.257Z,13.80
2022-09-01T04:16:52.813Z,13.90
2022-09-01T04:19:25.820Z,13.80
2022-09-01T04:21:56.131Z,13.80
2022-09-01T04:24:24.666Z,13.80
2022-09-01T04:26:52.742Z,13.80
2022-09-01T04:29:24.188Z,13.90
2022-09-01T04:31:52.122Z,13.70
2022-09-01T04:34:20.514Z,13.60
2022-09-01T04:36:48.294Z,13.70
2022-09-01T04:39:18.300Z,13.80
2022-09-01T04:41:46.129Z,13.70
2022-09-01T04:44:17.065Z,13.50
2022-09-01T04:46:50.217Z,13.40
2022-09-01T04:49:22.222Z,13.40
2022-09-01T04:51:53.826Z,13.40
2022-09-01T04:54:22.678Z,13.40
2022-09-01T04:56:52.357Z,13.40
2022-09-01T04:59:22.207Z,13.40
2022-09-01T05:01:50.597Z,13.30
2022-09-01T05:04:22.763Z,13.40
2022-09-01T05:06:53.003Z,13.40
2022-09-01T05:09:20.746Z,13.50
2022-09-01T05:11:50.148Z,13.50
2022-09-01T05:14:21.435Z,13.60
2022-09-01T05:16:49.868Z,13.60
2022-09-01T05:19:20.835Z,13.60
2022-09-01T05:21:49.085Z,13.70
2022-09-01T05:24:21.645Z,13.70
2022-09-01T05:26:50.790Z,13.70
2022-09-01T05:29:19.046Z,13.70
2022-09-01T05:31:50.399Z,13.80
2022-09-01T05:34:26.338Z,13.70
2022-09-01T05:36:57.214Z,13.80
2022-09-01T05:39:25.028Z,14.40
2022-09-01T05:41:52.779Z,14.60
2022-09-01T05:44:22.872Z,14.60
2022-09-01T05:46:50.580Z,14.60
2022-09-01T05:49:18.636Z,14.40
2022-09-01T05:51:52.164Z,14.50
2022-09-01T05:54:23.422Z,14.60
2022-09-01T05:56:50.191Z,14.70
2022-09-01T05:59:25.568Z,14.80
2022-09-01T06:01:54.196Z,14.90
2022-09-01T06:04:22.739Z,14.90
2022-09-01T06:07:06.607Z,15.00
2022-09-01T06:09:38.248Z,15.00
2022-09-01T06:12:06.545Z,15.10
2022-09-01T06:14:33.440Z,15.20
2022-09-01T06:17:00.929Z,15.20
2022-09-01T06:19:28.505Z,15.30
2022-09-01T06:21:56.859Z,15.40
2022-09-01T06:24:23.562Z,15.40
2022-09-01T06:26:50.298Z,15.40
2022-09-01T06:29:17.037Z,15.50
2022-09-01T06:31:51.838Z,15.50
2022-09-01T06:34:19.609Z,15.50
2022-09-01T06:36:51.741Z,15.70
2022-09-01T06:39:21.147Z,15.80
2022-09-01T06:41:49.629Z,15.90
2022-09-01T06:44:22.345Z,16.00
2022-09-01T06:46:50.949Z,16.10
2022-09-01T06:49:17.808Z,16.00
2022-09-01T06:51:46.947Z,16.10
2022-09-01T06:54:14.946Z,16.20
2022-09-01T06:56:45.061Z,16.20
2022-09-01T06:59:19.612Z,16.20
2022-09-01T07:01:47.993Z,16.30
2022-09-01T07:04:17.253Z,16.30
2022-09-01T07:07:00.094Z,16.30
2022-09-01T07:09:47.244Z,16.40
2022-09-01T07:12:27.663Z,16.60
2022-09-01T07:17:42.723Z,16.90
2022-09-01T07:20:27.174Z,16.90
2022-09-01T07:23:04.521Z,17.00
2022-09-01T07:28:37.303Z,17.20
2022-09-01T07:33:55.722Z,17.50
2022-09-01T07:39:48.361Z,17.60
2022-09-01T07:45:26.150Z,17.80
2022-09-01T07:47:53.933Z,17.80
2022-09-01T07:53:17.639Z,18.00
2022-09-01T07:55:46.831Z,18.20
2022-09-01T07:58:14.305Z,18.10
2022-09-01T08:00:43.536Z,18.30
2022-09-01T08:03:10.267Z,18.40
2022-09-01T08:05:37.117Z,18.40
2022-09-01T08:08:04.461Z,18.50
2022-09-01T08:10:49.025Z,18.60
2022-09-01T08:13:17.004Z,18.80
2022-09-01T08:18:47.938Z,18.80
2022-09-01T08:21:16.486Z,18.80
2022-09-01T08:23:44.245Z,18.90
2022-09-01T08:26:14.199Z,19.00
2022-09-01T08:28:45.874Z,19.10
2022-09-01T08:31:15.967Z,19.30
2022-09-01T08:33:44.096Z,19.40
2022-09-01T08:36:14.510Z,19.60
2022-09-01T08:38:41.674Z,19.80
2022-09-01T08:41:49.913Z,19.80
2022-09-01T08:44:46.593Z,19.90
2022-09-01T08:47:28.827Z,20.10
2022-09-01T08:49:58.923Z,20.20
2022-09-01T08:52:35.658Z,20.30
2022-09-01T08:55:38.473Z,20.50
2022-09-01T08:58:06.839Z,20.60
2022-09-01T09:00:42.015Z,20.80
2022-09-01T09:03:48.506Z,20.90
2022-09-01T09:06:25.782Z,20.80
2022-09-01T09:09:05.027Z,20.80
2022-09-01T09:11:53.036Z,20.80
2022-09-01T09:14:46.289Z,20.80
2022-09-01T09:17:16.426Z,20.90
2022-09-01T09:19:45.474Z,20.80
2022-09-01T09:22:15.270Z,20.80
2022-09-01T09:24:52.646Z,20.90
2022-09-01T09:27:22.177Z,21.00
2022-09-01T09:29:51.730Z,21.00
2022-09-01T09:32:44.209Z,21.10
2022-09-01T09:35:34.138Z,21.20
2022-09-01T09:38:33.606Z,21.30
2022-09-01T09:44:08.305Z,21.20
2022-09-01T09:46:39.192Z,21.40
2022-09-01T09:49:35.122Z,21.30
2022-09-01T09:52:03.333Z,21.30
2022-09-01T09:54:34.952Z,21.40
2022-09-01T09:57:13.343Z,21.40
2022-09-01T09:59:58.629Z,21.50
2022-09-01T10:02:37.773Z,21.60
2022-09-01T10:05:37.099Z,21.50
2022-09-01T10:08:06.649Z,21.60
2022-09-01T10:10:48.663Z,21.80
2022-09-01T10:13:25.944Z,21.80
2022-09-01T10:16:00.144Z,21.90
2022-09-01T10:18:35.213Z,22.00
2022-09-01T10:21:16.141Z,22.00
2022-09-01T10:23:43.613Z,22.20
2022-09-01T10:26:33.820Z,22.30
2022-09-01T10:29:12.006Z,22.10
2022-09-01T10:31:40.774Z,22.40
2022-09-01T10:34:13.540Z,22.60
2022-09-01T10:36:46.935Z,22.50
2022-09-01T10:39:16.432Z,22.40
2022-09-01T10:41:53.249Z,22.30
2022-09-01T10:44:36.447Z,22.30
2022-09-01T10:47:13.805Z,22.40
2022-09-01T10:49:47.427Z,22.40
2022-09-01T10:52:43.587Z,22.70
2022-09-01T10:55:32.724Z,23.10
2022-09-01T11:01:15.621Z,23.80
2022-09-01T11:03:57.249Z,23.70
2022-09-01T11:07:11.566Z,23.90
2022-09-01T11:09:36.175Z,23.90
2022-09-01T11:12:29.025Z,23.60
2022-09-01T11:15:19.638Z,23.50
2022-09-01T11:17:52.671Z,23.20
2022-09-01T11:20:34.058Z,23.20
2022-09-01T11:23:05.363Z,23.00
2022-09-01T11:25:45.254Z,22.80
2022-09-01T11:28:18.302Z,22.90
2022-09-01T11:30:55.312Z,22.90
2022-09-01T11:33:59.041Z,23.00
2022-09-01T11:36:30.563Z,23.00
2022-09-01T11:39:23.095Z,23.30
2022-09-01T11:42:04.731Z,24.00
2022-09-01T11:44:41.227Z,23.80
2022-09-01T11:47:17.383Z,23.60
2022-09-01T11:49:51.847Z,23.70
2022-09-01T11:52:20.401Z,24.20
2022-09-01T11:54:48.147Z,24.80
2022-09-01T11:57:26.394Z,24.80
2022-09-01T11:59:54.159Z,25.00
2022-09-01T12:02:36.965Z,25.40
2022-09-01T12:05:24.388Z,25.30
2022-09-01T12:07:51.251Z,25.50
2022-09-01T12:10:31.200Z,25.30
2022-09-01T12:13:11.122Z,25.30
2022-09-01T12:16:00.604Z,25.20
2022-09-01T12:18:32.041Z,25.10
2022-09-01T12:21:02.135Z,25.00
2022-09-01T12:23:33.400Z,24.70
2022-09-01T12:26:07.961Z,24.50
2022-09-01T12:28:35.849Z,24.50
2022-09-01T12:31:08.085Z,24.40
2022-09-01T12:33:35.441Z,24.40
2022-09-01T12:36:26.958Z,24.20
2022-09-01T12:39:17.622Z,24.20
2022-09-01T12:42:11.796Z,24.10
2022-09-01T12:44:38.439Z,23.90
2022-09-01T12:47:10.717Z,23.90
2022-09-01T12:49:41.181Z,23.80
2022-09-01T12:52:20.409Z,23.70
2022-09-01T12:54:50.157Z,23.90
2022-09-01T12:57:35.905Z,23.80
2022-09-01T13:00:12.389Z,23.80
2022-09-01T13:02:40.814Z,23.80
2022-09-01T13:05:21.555Z,24.10
2022-09-01T13:07:48.602Z,24.40
2022-09-01T13:10:15.389Z,24.30
2022-09-01T13:12:44.333Z,24.30
2022-09-01T13:15:15.547Z,24.20
2022-09-01T13:17:43.485Z,24.10
2022-09-01T13:20:12.142Z,23.90
2022-09-01T13:22:41.212Z,23.80
2022-09-01T13:25:10.056Z,23.90
2022-09-01T13:27:37.825Z,24.00
2022-09-01T13:30:06.987Z,23.90
2022-09-01T13:32:34.076Z,23.80
2022-09-01T13:35:01.063Z,23.70
2022-09-01T13:37:28.641Z,23.80
2022-09-01T13:39:55.309Z,23.80
2022-09-01T13:42:22.650Z,23.90
2022-09-01T13:44:54.107Z,24.00
2022-09-01T13:47:30.008Z,24.20
2022-09-01T13:50:13.509Z,24.30
2022-09-01T13:52:44.106Z,24.30
2022-09-01T13:55:14.046Z,24.20
2022-09-01T13:57:41.488Z,24.20
2022-09-01T14:00:12.242Z,24.20
2022-09-01T14:02:40.779Z,24.10
2022-09-01T14:05:07.972Z,24.20
2022-09-01T14:07:34.727Z,24.30
2022-09-01T14:10:01.549Z,24.10
2022-09-01T14:12:30.190Z,24.10
2022-09-01T14:15:16.179Z,24.00
2022-09-01T14:17:44.966Z,24.00
2022-09-01T14:20:18.188Z,23.90
2022-09-01T14:22:46.058Z,23.90
2022-09-01T14:25:13.511Z,23.90
2022-09-01T14:27:40.419Z,23.90
2022-09-01T14:30:11.124Z,24.00
2022-09-01T14:32:38.298Z,24.10
2022-09-01T14:35:08.155Z,24.10
2022-09-01T14:37:37.609Z,24.10
2022-09-01T14:40:05.754Z,24.10
2022-09-01T14:42:32.712Z,24.20
2022-09-01T14:45:00.150Z,24.40
2022-09-01T14:47:26.914Z,24.40
2022-09-01T14:49:55.757Z,24.40
2022-09-01T14:52:22.467Z,24.40
2022-09-01T14:54:49.831Z,24.40
2022-09-01T14:57:37.652Z,24.30
2022-09-01T15:00:12.351Z,24.40
2022-09-01T15:02:40.883Z,24.60
2022-09-01T15:05:09.828Z,24.70
2022-09-01T15:07:37.444Z,24.40
2022-09-01T15:10:06.247Z,24.40
2022-09-01T15:12:33.104Z,24.20
2022-09-01T15:15:00.815Z,24.10
2022-09-01T15:17:28.808Z,24.10
2022-09-01T15:19:55.856Z,24.30
2022-09-01T15:22:22.680Z,24.40
2022-09-01T15:24:49.329Z,24.40
2022-09-01T15:27:16.021Z,24.40
2022-09-01T15:29:47.857Z,24.20
2022-09-01T15:32:27.413Z,24.00
2022-09-01T15:34:55.422Z,23.90
2022-09-01T15:37:22.148Z,24.00
2022-09-01T15:39:48.797Z,24.00
2022-09-01T15:42:17.287Z,24.00
2022-09-01T15:44:44.286Z,23.90
2022-09-01T15:47:10.965Z,24.00
2022-09-01T15:49:37.617Z,24.00
2022-09-01T15:52:04.309Z,24.00
2022-09-01T15:54:31.004Z,24.00
2022-09-01T15:56:57.723Z,24.10
2022-09-01T15:59:24.368Z,24.00
2022-09-01T16:01:53.979Z,23.90
2022-09-01T16:04:24.210Z,24.00
2022-09-01T16:06:56.703Z,24.00
2022-09-01T16:09:25.374Z,24.00
2022-09-01T16:11:52.448Z,23.90
2022-09-01T16:14:21.048Z,23.90
2022-09-01T16:17:10.448Z,23.90
2022-09-01T16:19:49.878Z,23.90
2022-09-01T16:22:22.006Z,23.80
2022-09-01T16:24:51.747Z,23.80
2022-09-01T16:27:22.078Z,23.70
2022-09-01T16:29:53.370Z,23.80
2022-09-01T16:32:23.199Z,23.70
2022-09-01T16:34:51.930Z,23.70
2022-09-01T16:37:24.654Z,23.70
2022-09-01T16:40:16.715Z,23.80
2022-09-01T16:43:06.076Z,23.70
2022-09-01T16:45:52.251Z,23.70
2022-09-01T16:48:27.806Z,23.60
2022-09-01T16:51:09.633Z,23.60
2022-09-01T16:54:03.608Z,23.60
2022-09-01T16:56:39.217Z,23.60
2022-09-01T16:59:08.909Z,23.60
2022-09-01T17:01:52.447Z,23.60
2022-09-01T17:04:43.324Z,23.60
2022-09-01T17:07:33.109Z,23.60
2022-09-01T17:10:16.703Z,23.60
2022-09-01T17:12:56.165Z,23.50
2022-09-01T17:15:38.059Z,23.50
2022-09-01T17:18:23.148Z,23.50
2022-09-01T17:20:58.332Z,23.40
2022-09-01T17:23:35.527Z,23.40
2022-09-01T17:26:07.371Z,23.30
2022-09-01T17:28:44.154Z,23.20
2022-09-01T17:31:38.989Z,23.20
2022-09-01T17:34:18.633Z,23.20
2022-09-01T17:36:47.112Z,23.20
2022-09-01T17:39:25.249Z,23.20
2022-09-01T17:41:59.046Z,23.10
2022-09-01T17:44:56.135Z,23.00
2022-09-01T17:47:51.629Z,23.00
2022-09-01T17:50:32.041Z,22.80
2022-09-01T17:53:10.169Z,22.80
2022-09-01T17:55:51.050Z,22.70
2022-09-01T17:58:33.488Z,22.60
2022-09-01T18:01:14.738Z,22.50
2022-09-01T18:04:25.796Z,22.40
2022-09-01T18:07:00.366Z,22.20
2022-09-01T18:09:30.105Z,22.00
2022-09-01T18:12:04.442Z,21.90
2022-09-01T18:15:08.961Z,21.90
2022-09-01T18:17:48.242Z,21.70
2022-09-01T18:20:24.842Z,21.60
2022-09-01T18:23:10.096Z,21.60
2022-09-01T18:25:47.861Z,21.50
2022-09-01T18:28:15.330Z,21.30
2022-09-01T18:31:22.088Z,21.20
2022-09-01T18:34:17.655Z,21.20
2022-09-01T18:37:04.559Z,20.90
2022-09-01T18:39:43.346Z,20.90
2022-09-01T18:42:28.149Z,20.70
2022-09-01T18:45:05.289Z,20.60
2022-09-01T18:47:36.464Z,20.60
2022-09-01T18:50:34.452Z,20.50
2022-09-01T18:53:15.965Z,20.40
2022-09-01T18:56:06.332Z,20.30
2022-09-01T18:59:05.248Z,20.10
2022-09-01T19:01:35.288Z,20.10
2022-09-01T19:04:17.786Z,20.00
2022-09-01T19:07:07.899Z,19.90
2022-09-01T19:09:39.487Z,19.80
2022-09-01T19:12:30.020Z,19.60
2022-09-01T19:15:27.722Z,19.60
2022-09-01T19:18:08.875Z,19.40
2022-09-01T19:21:13.825Z,19.40
2022-09-01T19:23:44.271Z,19.20
2022-09-01T19:26:17.003Z,19.20
2022-09-01T19:28:58.354Z,19.20
2022-09-01T19:31:28.996Z,19.20
2022-09-01T19:34:08.408Z,19.00
2022-09-01T19:36:46.502Z,18.90
2022-09-01T19:39:20.226Z,18.90
2022-09-01T19:42:06.087Z,18.70
2022-09-01T19:45:00.579Z,18.70
2022-09-01T19:48:14.103Z,18.60
2022-09-01T19:50:51.071Z,18.60
2022-09-01T19:53:41.658Z,18.40
2022-09-01T19:56:13.216Z,18.40
2022-09-01T19:58:56.325Z,18.40
2022-09-01T20:01:43.478Z,18.30
2022-09-01T20:04:33.029Z,18.20
2022-09-01T20:07:01.319Z,18.30
2022-09-01T20:09:51.966Z,18.20
2022-09-01T20:12:25.585Z,18.10
2022-09-01T20:15:17.303Z,18.00
2022-09-01T20:17:52.174Z,18.00
2022-09-01T20:20:30.765Z,17.80
2022-09-01T20:23:11.166Z,17.60
2022-09-01T20:25:53.894Z,17.60
2022-09-01T20:28:46.889Z,17.60
2022-09-01T20:31:25.004Z,17.70
2022-09-01T20:34:07.901Z,17.60
2022-09-01T20:36:41.000Z,17.50
2022-09-01T20:39:41.285Z,17.50
2022-09-01T20:42:19.775Z,17.40
2022-09-01T20:44:55.393Z,17.50
2022-09-01T20:47:28.279Z,17.50
2022-09-01T20:49:56.989Z,17.30
2022-09-01T20:52:38.357Z,17.30
2022-09-01T20:55:26.706Z,17.10
2022-09-01T20:58:00.416Z,17.00
2022-09-01T21:00:29.853Z,16.80
2022-09-01T21:03:17.051Z,16.90
2022-09-01T21:06:01.224Z,17.00
2022-09-01T21:08:53.102Z,17.00
2022-09-01T21:11:34.869Z,17.20
2022-09-01T21:14:14.403Z,17.00
2022-09-01T21:16:57.549Z,17.00
2022-09-01T21:19:38.589Z,17.00
2022-09-01T21:22:15.017Z,17.00
2022-09-01T21:24:43.716Z,16.80
2022-09-01T21:27:23.958Z,16.80
2022-09-01T21:30:05.818Z,16.70
2022-09-01T21:32:34.354Z,16.80
2022-09-01T21:35:01.735Z,16.70
2022-09-01T21:37:28.982Z,16.70
2022-09-01T21:39:57.089Z,16.70
2022-09-01T21:42:37.840Z,16.70
2022-09-01T21:45:06.582Z,16.70
2022-09-01T21:47:34.171Z,16.60
2022-09-01T21:50:00.886Z,16.70
2022-09-01T21:52:27.577Z,16.70
2022-09-01T21:54:54.337Z,16.60
2022-09-01T21:57:22.972Z,16.60
2022-09-01T21:59:51.372Z,16.50
2022-09-01T22:02:19.956Z,16.50
2022-09-01T22:04:47.364Z,16.50
2022-09-01T22:07:18.645Z,16.30
2022-09-01T22:09:47.177Z,16.20
2022-09-01T22:12:14.574Z,16.20
2022-09-01T22:14:41.334Z,16.20
2022-09-01T22:17:08.109Z,16.20
2022-09-01T22:19:36.327Z,16.20
2022-09-01T22:22:03.832Z,16.00
2022-09-01T22:24:30.967Z,16.20
2022-09-01T22:26:57.797Z,16.10
2022-09-01T22:29:25.164Z,16.00
2022-09-01T22:31:52.417Z,16.00
2022-09-01T22:34:19.158Z,16.00
2022-09-01T22:36:48.632Z,16.00
2022-09-01T22:39:17.150Z,16.00
2022-09-01T22:41:43.884Z,16.00
2022-09-01T22:44:11.135Z,16.00
2022-09-01T22:46:38.779Z,16.10
2022-09-01T22:49:06.589Z,16.10
2022-09-01T22:51:34.141Z,16.10
2022-09-01T22:54:00.839Z,16.00
2022-09-01T22:56:30.592Z,16.00
2022-09-01T22:58:58.978Z,16.10
2022-09-01T23:01:30.003Z,16.00
2022-09-01T23:03:59.484Z,16.00
2022-09-01T23:06:28.906Z,16.00
2022-09-01T23:08:57.202Z,16.00
2022-09-01T23:11:24.009Z,15.90
2022-09-01T23:13:51.485Z,15.90
2022-09-01T23:16:20.382Z,15.80
2022-09-01T23:18:48.920Z,15.90
2022-09-01T23:21:18.316Z,15.90
2022-09-01T23:23:46.010Z,15.80
2022-09-01T23:26:13.653Z,15.80
2022-09-01T23:28:41.985Z,15.80
2022-09-01T23:31:11.240Z,15.70
2022-09-01T23:33:38.074Z,15.60
2022-09-01T23:36:08.274Z,15.60
2022-09-01T23:38:36.089Z,15.60
2022-09-01T23:41:10.162Z,15.60
2022-09-01T23:43:37.712Z,15.60
2022-09-01T23:46:05.488Z,15.60
2022-09-01T23:48:32.495Z,15.60
2022-09-01T23:51:01.728Z,15.60
2022-09-01T23:53:31.441Z,15.30
2022-09-01T23:56:02.119Z,15.30
2022-09-01T23:58:31.805Z,15.30
